createdAt,value
2022-09-12T00:01:52.127Z,0
2022-09-12T00:03:58.474Z,0
2022-09-12T00:05:01.306Z,0
2022-09-12T00:06:04.009Z,0
2022-09-12T00:07:07.498Z,0
2022-09-12T00:09:13.456Z,0
2022-09-12T00:10:16.052Z,0
2022-09-12T00:11:19.196Z,0
2022-09-12T00:12:22.926Z,0
2022-09-12T00:14:27.901Z,0
2022-09-12T00:15:31.348Z,0
2022-09-12T00:17:38.392Z,0
2022-09-12T00:19:44.533Z,0
2022-09-12T00:21:51.286Z,0
2022-09-12T00:22:54.807Z,0
2022-09-12T00:25:01.537Z,0
2022-09-12T00:27:08.379Z,0
2022-09-12T00:28:11.460Z,0
2022-09-12T00:29:14.349Z,0
2022-09-12T00:30:16.583Z,0
2022-09-12T00:32:21.720Z,0
2022-09-12T00:34:27.516Z,0
2022-09-12T00:35:30.233Z,0
2022-09-12T00:37:35.189Z,0
2022-09-12T00:39:43.000Z,0
2022-09-12T00:41:48.685Z,0
2022-09-12T00:42:51.191Z,0
2022-09-12T00:44:57.130Z,0
2022-09-12T00:46:00.150Z,0
2022-09-12T00:48:05.926Z,0
2022-09-12T00:50:11.890Z,0
2022-09-12T00:51:15.573Z,0
2022-09-12T00:52:19.326Z,0
2022-09-12T00:53:22.195Z,0
2022-09-12T00:55:29.095Z,0
2022-09-12T00:57:35.322Z,0
2022-09-12T00:58:38.471Z,0
2022-09-12T01:00:45.185Z,0
2022-09-12T01:02:52.537Z,0
2022-09-12T01:03:55.330Z,0
2022-09-12T01:06:01.456Z,0
2022-09-12T01:08:07.549Z,0
2022-09-12T01:09:10.525Z,0
2022-09-12T01:10:14.285Z,0
2022-09-12T01:11:17.039Z,0
2022-09-12T01:13:23.128Z,0
2022-09-12T01:14:26.005Z,0
2022-09-12T01:15:28.723Z,0
2022-09-12T01:16:32.132Z,0
2022-09-12T01:18:38.608Z,0
2022-09-12T01:19:41.969Z,0
2022-09-12T01:21:47.756Z,0
2022-09-12T01:22:51.198Z,0
2022-09-12T01:24:56.201Z,0
2022-09-12T01:27:02.828Z,0
2022-09-12T01:28:06.273Z,0
2022-09-12T01:29:09.094Z,0
2022-09-12T01:30:11.912Z,0
2022-09-12T01:32:19.124Z,0
2022-09-12T01:33:22.556Z,0
2022-09-12T01:35:28.681Z,0
2022-09-12T01:37:34.366Z,0
2022-09-12T01:38:37.566Z,0
2022-09-12T01:40:45.270Z,0
2022-09-12T01:42:51.894Z,0
2022-09-12T01:43:55.161Z,0
2022-09-12T01:46:02.360Z,0
2022-09-12T01:47:05.268Z,0
2022-09-12T01:49:11.440Z,0
2022-09-12T01:51:17.747Z,0
2022-09-12T01:52:20.271Z,0
2022-09-12T01:53:23.980Z,0
2022-09-12T01:54:26.416Z,0
2022-09-12T01:56:33.012Z,0
2022-09-12T01:57:37.066Z,0
2022-09-12T01:59:43.130Z,0
2022-09-12T02:00:46.502Z,0
2022-09-12T02:01:50.314Z,0
2022-09-12T02:02:53.673Z,0
2022-09-12T02:04:59.482Z,0
2022-09-12T02:06:02.821Z,0
2022-09-12T02:08:08.940Z,0
2022-09-12T02:09:11.820Z,0
2022-09-12T02:10:15.112Z,0
2022-09-12T02:11:18.278Z,0
2022-09-12T02:13:24.583Z,0
2022-09-12T02:14:27.776Z,0
2022-09-12T02:16:34.443Z,0
2022-09-12T02:18:40.993Z,0
2022-09-12T02:19:44.133Z,0
2022-09-12T02:20:50.983Z,0
2022-09-12T02:21:54.139Z,0
2022-09-12T02:24:00.734Z,0
2022-09-12T02:26:07.225Z,0
2022-09-12T02:27:10.616Z,0
2022-09-12T02:29:17.881Z,0
2022-09-12T02:31:24.020Z,0
2022-09-12T02:32:27.742Z,0
2022-09-12T02:34:33.058Z,0
2022-09-12T02:36:38.621Z,0
2022-09-12T02:37:41.723Z,0
2022-09-12T02:39:48.323Z,0
2022-09-12T02:40:51.691Z,0
2022-09-12T02:41:54.864Z,0
2022-09-12T02:42:58.057Z,0
2022-09-12T02:45:04.074Z,0
2022-09-12T02:46:07.350Z,0
2022-09-12T02:47:10.512Z,0
2022-09-12T02:48:15.281Z,0
2022-09-12T02:50:20.702Z,0
2022-09-12T02:52:28.359Z,0
2022-09-12T02:53:31.343Z,0
2022-09-12T02:55:37.354Z,0
2022-09-12T02:57:42.539Z,0
2022-09-12T02:58:46.371Z,0
2022-09-12T03:00:54.023Z,0
2022-09-12T03:01:57.896Z,0
2022-09-12T03:03:01.486Z,0
2022-09-12T03:04:03.912Z,0
2022-09-12T03:05:07.606Z,0
2022-09-12T03:06:10.200Z,0
2022-09-12T03:07:12.796Z,0
2022-09-12T03:09:18.730Z,0
2022-09-12T03:10:22.083Z,0
2022-09-12T03:12:28.200Z,0
2022-09-12T03:14:34.579Z,0
2022-09-12T03:15:37.648Z,0
2022-09-12T03:17:45.004Z,0
2022-09-12T03:18:48.571Z,0
2022-09-12T03:20:54.062Z,0
2022-09-12T03:23:00.966Z,0
2022-09-12T03:24:04.033Z,0
2022-09-12T03:26:08.982Z,0
2022-09-12T03:28:15.557Z,0
2022-09-12T03:29:17.784Z,0
2022-09-12T03:31:24.331Z,0
2022-09-12T03:33:31.409Z,0
2022-09-12T03:35:37.074Z,0
2022-09-12T03:36:39.587Z,0
2022-09-12T03:38:45.057Z,0
2022-09-12T03:40:56.784Z,0
2022-09-12T03:41:59.661Z,0
2022-09-12T03:43:02.850Z,0
2022-09-12T03:44:05.983Z,0
2022-09-12T03:45:08.977Z,0
2022-09-12T03:46:12.423Z,0
2022-09-12T03:48:19.050Z,0
2022-09-12T03:49:22.159Z,0
2022-09-12T03:50:24.948Z,0
2022-09-12T03:51:28.212Z,0
2022-09-12T03:53:34.632Z,0
2022-09-12T03:54:38.054Z,0
2022-09-12T03:55:41.391Z,0
2022-09-12T03:56:44.737Z,0
2022-09-12T03:58:52.142Z,0
2022-09-12T04:00:58.098Z,0
2022-09-12T04:02:02.316Z,0
2022-09-12T04:04:08.350Z,0
2022-09-12T04:06:14.272Z,0
2022-09-12T04:08:20.392Z,0
2022-09-12T04:09:23.553Z,0
2022-09-12T04:11:29.837Z,0
2022-09-12T04:13:35.418Z,0
2022-09-12T04:15:41.706Z,0
2022-09-12T04:16:44.938Z,0
2022-09-12T04:18:51.233Z,0
2022-09-12T04:20:58.515Z,0
2022-09-12T04:23:03.885Z,0
2022-09-12T04:24:06.871Z,0
2022-09-12T04:26:12.856Z,0
2022-09-12T04:28:18.953Z,0
2022-09-12T04:30:25.282Z,0
2022-09-12T04:31:27.824Z,1
2022-09-12T04:33:33.166Z,1
2022-09-12T04:35:39.447Z,1
2022-09-12T04:37:46.985Z,2
2022-09-12T04:38:50.484Z,2
2022-09-12T04:40:56.561Z,2
2022-09-12T04:43:02.876Z,3
2022-09-12T04:44:05.664Z,3
2022-09-12T04:45:08.558Z,4
2022-09-12T04:46:11.723Z,4
2022-09-12T04:48:17.452Z,5
2022-09-12T04:49:20.854Z,5
2022-09-12T04:50:24.182Z,5
2022-09-12T04:51:28.011Z,6
2022-09-12T04:53:33.413Z,7
2022-09-12T04:54:36.562Z,7
2022-09-12T04:55:39.349Z,7
2022-09-12T04:56:42.215Z,8
2022-09-12T04:58:48.888Z,9
2022-09-12T04:59:51.675Z,9
2022-09-12T05:00:55.867Z,10
2022-09-12T05:01:59.982Z,10
2022-09-12T05:04:06.751Z,11
2022-09-12T05:06:13.743Z,13
2022-09-12T05:07:17.522Z,13
2022-09-12T05:09:24.426Z,15
2022-09-12T05:12:10.288Z,16
2022-09-12T05:14:16.715Z,17
2022-09-12T05:16:23.037Z,18
2022-09-12T05:18:30.308Z,20
2022-09-12T05:19:33.378Z,20
2022-09-12T05:21:39.559Z,21
2022-09-12T05:23:46.273Z,23
2022-09-12T05:25:55.231Z,24
2022-09-12T05:26:58.072Z,24
2022-09-12T05:29:03.987Z,26
2022-09-12T05:31:10.976Z,27
2022-09-12T05:33:16.352Z,28
2022-09-12T05:34:19.430Z,29
2022-09-12T05:36:26.397Z,30
2022-09-12T05:38:34.246Z,31
2022-09-12T05:40:41.178Z,33
2022-09-12T05:41:44.171Z,33
2022-09-12T05:42:46.912Z,34
2022-09-12T05:43:49.625Z,35
2022-09-12T05:45:56.240Z,36
2022-09-12T05:48:02.136Z,38
2022-09-12T05:49:05.202Z,38
2022-09-12T05:51:10.799Z,39
2022-09-12T05:53:17.224Z,40
2022-09-12T05:55:24.328Z,41
2022-09-12T05:56:27.775Z,42
2022-09-12T05:58:34.132Z,43
2022-09-12T06:00:40.068Z,44
2022-09-12T06:01:43.369Z,44
2022-09-12T06:02:46.860Z,44
2022-09-12T06:03:49.644Z,45
2022-09-12T06:05:55.421Z,45
2022-09-12T06:08:01.779Z,46
2022-09-12T06:09:04.930Z,46
2022-09-12T06:10:08.708Z,47
2022-09-12T06:11:11.920Z,47
2022-09-12T06:13:18.526Z,48
2022-09-12T06:14:21.972Z,48
2022-09-12T06:15:25.670Z,48
2022-09-12T06:16:29.009Z,49
2022-09-12T06:18:35.732Z,49
2022-09-12T06:20:41.308Z,50
2022-09-12T06:21:43.802Z,51
2022-09-12T06:23:49.563Z,52
2022-09-12T06:24:59.958Z,52
2022-09-12T06:26:03.173Z,52
2022-09-12T06:28:08.947Z,52
2022-09-12T06:29:12.024Z,52
2022-09-12T06:31:18.548Z,53
2022-09-12T06:33:24.771Z,54
2022-09-12T06:35:30.271Z,55
2022-09-12T06:36:33.545Z,55
2022-09-12T06:38:40.447Z,57
2022-09-12T06:40:46.391Z,59
2022-09-12T06:42:53.726Z,60
2022-09-12T06:43:56.889Z,60
2022-09-12T06:46:03.985Z,61
2022-09-12T06:48:09.951Z,61
2022-09-12T06:50:15.444Z,62
2022-09-12T06:51:19.010Z,63
2022-09-12T06:53:24.669Z,64
2022-09-12T06:55:30.077Z,64
2022-09-12T06:57:36.442Z,66
2022-09-12T06:58:39.940Z,67
2022-09-12T07:00:46.225Z,68
2022-09-12T07:02:52.801Z,70
2022-09-12T07:03:56.162Z,70
2022-09-12T07:04:59.323Z,71
2022-09-12T07:06:02.129Z,71
2022-09-12T07:08:08.149Z,73
2022-09-12T07:09:11.321Z,74
2022-09-12T07:10:15.001Z,74
2022-09-12T07:11:19.378Z,75
2022-09-12T07:13:27.223Z,77
2022-09-12T07:15:33.676Z,78
2022-09-12T07:16:37.453Z,79
2022-09-12T07:18:44.066Z,80
2022-09-12T07:20:50.683Z,81
2022-09-12T07:23:03.411Z,83
2022-09-12T07:24:06.196Z,84
2022-09-12T07:26:12.427Z,85
2022-09-12T07:28:18.723Z,88
2022-09-12T07:29:40.201Z,88
2022-09-12T07:30:43.900Z,89
2022-09-12T07:31:46.339Z,90
2022-09-12T07:33:57.180Z,92
2022-09-12T07:36:02.795Z,93
2022-09-12T07:38:09.008Z,96
2022-09-12T07:39:11.805Z,96
2022-09-12T07:41:18.406Z,99
2022-09-12T07:43:25.249Z,102
2022-09-12T07:45:32.766Z,242
2022-09-12T07:46:35.421Z,255
2022-09-12T07:48:41.751Z,254
2022-09-12T07:50:47.774Z,280
2022-09-12T07:52:53.707Z,277
2022-09-12T07:53:56.812Z,289
2022-09-12T07:56:03.801Z,299
2022-09-12T07:58:10.158Z,399
2022-09-12T08:00:17.237Z,692
2022-09-12T08:01:21.142Z,677
2022-09-12T08:03:27.890Z,677
2022-09-12T08:05:34.514Z,652
2022-09-12T08:07:41.497Z,699
2022-09-12T08:08:44.663Z,665
2022-09-12T08:10:50.690Z,681
2022-09-12T08:12:56.641Z,714
2022-09-12T08:15:03.010Z,720
2022-09-12T08:16:07.107Z,645
2022-09-12T08:18:14.117Z,723
2022-09-12T08:20:28.905Z,724
2022-09-12T08:22:35.033Z,709
2022-09-12T08:23:38.742Z,742
2022-09-12T08:25:44.989Z,799
2022-09-12T08:27:50.657Z,809
2022-09-12T08:29:57.186Z,824
2022-09-12T08:31:01.398Z,792
2022-09-12T08:33:09.323Z,759
2022-09-12T08:35:15.453Z,740
2022-09-12T08:37:22.321Z,644
2022-09-12T08:38:25.518Z,719
2022-09-12T08:40:31.581Z,734
2022-09-12T08:42:36.820Z,852
2022-09-12T08:43:39.692Z,217
2022-09-12T08:45:46.247Z,329
2022-09-12T08:47:53.690Z,864
2022-09-12T08:48:57.092Z,857
2022-09-12T08:51:04.094Z,954
2022-09-12T08:53:09.662Z,915
2022-09-12T08:54:12.755Z,906
2022-09-12T08:56:19.863Z,919
2022-09-12T08:58:26.728Z,935
2022-09-12T09:00:33.414Z,841
2022-09-12T09:01:37.451Z,868
2022-09-12T09:03:44.622Z,242
2022-09-12T09:05:51.909Z,955
2022-09-12T09:06:55.057Z,608
2022-09-12T09:09:00.959Z,998
2022-09-12T09:11:07.017Z,924
2022-09-12T09:12:10.090Z,890
2022-09-12T09:14:15.761Z,808
2022-09-12T09:16:22.198Z,926
2022-09-12T09:17:25.324Z,881
2022-09-12T09:19:32.176Z,273
2022-09-12T09:20:35.234Z,947
2022-09-12T09:21:38.402Z,890
2022-09-12T09:22:41.756Z,995
2022-09-12T09:24:48.960Z,1006
2022-09-12T09:25:52.038Z,1015
2022-09-12T09:27:58.526Z,1013
2022-09-12T09:29:02.528Z,982
2022-09-12T09:31:09.195Z,1081
2022-09-12T09:33:14.987Z,1031
2022-09-12T09:34:18.609Z,998
2022-09-12T09:36:25.146Z,995
2022-09-12T09:37:28.024Z,886
2022-09-12T09:39:34.037Z,946
2022-09-12T09:41:41.228Z,847
2022-09-12T09:42:44.876Z,818
2022-09-12T09:44:51.033Z,802
2022-09-12T09:46:57.477Z,933
2022-09-12T09:48:01.163Z,991
2022-09-12T09:50:07.304Z,937
2022-09-12T09:52:13.553Z,652
2022-09-12T09:54:20.448Z,1034
2022-09-12T09:55:23.798Z,999
2022-09-12T09:57:31.240Z,1032
2022-09-12T09:59:37.525Z,1022
2022-09-12T10:01:44.140Z,1096
2022-09-12T10:02:46.791Z,1115
2022-09-12T10:04:53.204Z,1087
2022-09-12T10:05:56.526Z,973
2022-09-12T10:06:59.998Z,993
2022-09-12T10:08:03.391Z,1032
2022-09-12T10:10:10.827Z,1037
2022-09-12T10:11:14.275Z,900
2022-09-12T10:12:17.697Z,943
2022-09-12T10:13:21.127Z,879
2022-09-12T10:15:27.070Z,404
2022-09-12T10:16:29.881Z,802
2022-09-12T10:18:38.281Z,806
2022-09-12T10:20:44.186Z,568
2022-09-12T10:21:47.914Z,895
2022-09-12T10:22:51.119Z,949
2022-09-12T10:23:54.803Z,877
2022-09-12T10:26:01.077Z,957
2022-09-12T10:27:03.801Z,969
2022-09-12T10:29:09.203Z,1003
2022-09-12T10:31:16.185Z,1041
2022-09-12T10:32:19.554Z,1027
2022-09-12T10:33:23.001Z,1025
2022-09-12T10:34:26.432Z,1030
2022-09-12T10:36:33.088Z,1053
2022-09-12T10:37:36.093Z,1014
2022-09-12T10:39:42.988Z,941
2022-09-12T10:41:49.640Z,934
2022-09-12T10:42:52.444Z,914
2022-09-12T10:44:59.032Z,937
2022-09-12T10:47:05.867Z,886
2022-09-12T10:48:09.952Z,786
2022-09-12T10:50:24.884Z,739
2022-09-12T10:52:32.105Z,756
2022-09-12T10:53:37.868Z,786
2022-09-12T10:54:41.073Z,775
2022-09-12T10:55:44.534Z,795
2022-09-12T10:57:50.454Z,756
2022-09-12T10:58:53.625Z,650
2022-09-12T11:01:00.698Z,633
2022-09-12T11:02:18.860Z,603
2022-09-12T11:03:22.057Z,649
2022-09-12T11:04:25.781Z,705
2022-09-12T11:06:32.122Z,764
2022-09-12T11:07:35.588Z,774
2022-09-12T11:09:41.735Z,787
2022-09-12T11:11:49.269Z,782
2022-09-12T11:12:53.008Z,810
2022-09-12T11:14:58.713Z,697
2022-09-12T11:17:04.979Z,821
2022-09-12T11:18:07.567Z,809
2022-09-12T11:20:14.389Z,755
2022-09-12T11:22:21.241Z,726
2022-09-12T11:23:24.706Z,345
2022-09-12T11:25:30.930Z,377
2022-09-12T11:26:34.727Z,337
2022-09-12T11:28:48.239Z,406
2022-09-12T11:29:51.116Z,519
2022-09-12T11:30:54.705Z,508
2022-09-12T11:31:57.791Z,636
2022-09-12T11:34:03.781Z,684
2022-09-12T11:35:06.875Z,670
2022-09-12T11:36:09.968Z,685
2022-09-12T11:37:19.764Z,663
2022-09-12T11:38:23.413Z,397
2022-09-12T11:39:26.782Z,354
2022-09-12T11:40:30.462Z,559
2022-09-12T11:42:36.516Z,544
2022-09-12T11:44:42.872Z,401
2022-09-12T11:45:46.249Z,550
2022-09-12T11:46:54.315Z,577
2022-09-12T11:47:57.188Z,601
2022-09-12T11:48:59.817Z,626
2022-09-12T11:50:02.253Z,601
2022-09-12T11:51:05.402Z,604
2022-09-12T11:53:12.649Z,639
2022-09-12T11:54:16.009Z,621
2022-09-12T11:56:22.475Z,591
2022-09-12T11:57:25.819Z,348
2022-09-12T11:58:29.895Z,319
2022-09-12T11:59:33.577Z,327
2022-09-12T12:01:50.383Z,647
2022-09-12T12:02:53.500Z,606
2022-09-12T12:04:59.260Z,617
2022-09-12T12:06:02.157Z,626
2022-09-12T12:08:08.648Z,471
2022-09-12T12:10:14.746Z,761
2022-09-12T12:11:17.950Z,761
2022-09-12T12:13:25.110Z,728
2022-09-12T12:15:32.288Z,669
2022-09-12T12:16:35.755Z,456
2022-09-12T12:17:39.179Z,569
2022-09-12T12:18:42.075Z,555
2022-09-12T12:20:49.323Z,541
2022-09-12T12:21:51.828Z,526
2022-09-12T12:23:58.443Z,558
2022-09-12T12:25:01.053Z,467
2022-09-12T12:26:04.330Z,545
2022-09-12T12:27:07.796Z,536
2022-09-12T12:29:14.657Z,481
2022-09-12T12:30:18.452Z,513
2022-09-12T12:32:25.089Z,563
2022-09-12T12:34:31.061Z,581
2022-09-12T12:35:34.792Z,587
2022-09-12T12:37:41.397Z,598
2022-09-12T12:39:47.819Z,612
2022-09-12T12:40:51.341Z,575
2022-09-12T12:42:57.600Z,497
2022-09-12T12:45:03.430Z,410
2022-09-12T12:46:07.628Z,359
2022-09-12T12:48:14.085Z,284
2022-09-12T12:49:17.160Z,297
2022-09-12T12:50:19.954Z,326
2022-09-12T12:51:23.015Z,313
2022-09-12T12:53:29.149Z,335
2022-09-12T12:54:31.668Z,283
2022-09-12T12:56:37.411Z,271
2022-09-12T12:58:43.686Z,270
2022-09-12T12:59:46.871Z,272
2022-09-12T13:01:57.655Z,284
2022-09-12T13:04:04.052Z,309
2022-09-12T13:05:07.124Z,290
2022-09-12T13:07:13.229Z,288
2022-09-12T13:09:18.853Z,319
2022-09-12T13:10:21.568Z,289
2022-09-12T13:12:27.709Z,280
2022-09-12T13:14:34.286Z,324
2022-09-12T13:16:41.418Z,274
2022-09-12T13:17:45.199Z,265
2022-09-12T13:20:31.110Z,244
2022-09-12T13:22:37.979Z,234
2022-09-12T13:24:42.897Z,242
2022-09-12T13:25:45.955Z,235
2022-09-12T13:27:52.868Z,215
2022-09-12T13:30:00.768Z,209
2022-09-12T13:32:06.579Z,204
2022-09-12T13:33:09.836Z,200
2022-09-12T13:35:16.429Z,202
2022-09-12T13:36:19.240Z,203
2022-09-12T13:38:25.239Z,208
2022-09-12T13:40:31.778Z,198
2022-09-12T13:41:34.574Z,193
2022-09-12T13:43:42.092Z,187
2022-09-12T13:44:44.829Z,184
2022-09-12T13:45:47.852Z,181
2022-09-12T13:46:51.351Z,177
2022-09-12T13:48:00.346Z,174
2022-09-12T13:49:04.427Z,174
2022-09-12T13:51:11.617Z,168
2022-09-12T13:52:15.617Z,164
2022-09-12T13:54:26.337Z,153
2022-09-12T13:56:33.148Z,152
2022-09-12T13:57:36.286Z,153
2022-09-12T13:58:39.184Z,153
2022-09-12T13:59:42.651Z,153
2022-09-12T14:01:49.125Z,150
2022-09-12T14:02:52.736Z,148
2022-09-12T14:04:01.067Z,150
2022-09-12T14:05:05.129Z,152
2022-09-12T14:07:11.863Z,181
2022-09-12T14:08:14.927Z,199
2022-09-12T14:09:25.577Z,224
2022-09-12T14:10:28.421Z,223
2022-09-12T14:12:34.430Z,212
2022-09-12T14:14:41.550Z,268
2022-09-12T14:15:44.654Z,314
2022-09-12T14:17:51.813Z,271
2022-09-12T14:19:57.453Z,329
2022-09-12T14:21:00.409Z,288
2022-09-12T14:22:03.546Z,266
2022-09-12T14:23:07.020Z,281
2022-09-12T14:25:12.793Z,401
2022-09-12T14:26:16.346Z,394
2022-09-12T14:27:19.139Z,430
2022-09-12T14:28:25.588Z,417
2022-09-12T14:30:31.909Z,397
2022-09-12T14:31:35.354Z,243
2022-09-12T14:32:38.436Z,231
2022-09-12T14:33:41.858Z,243
2022-09-12T14:35:48.503Z,220
2022-09-12T14:36:52.343Z,191
2022-09-12T14:37:56.380Z,183
2022-09-12T14:39:00.108Z,175
2022-09-12T14:41:06.876Z,167
2022-09-12T14:42:09.400Z,165
2022-09-12T14:44:14.816Z,168
2022-09-12T14:46:20.860Z,172
2022-09-12T14:47:23.484Z,184
2022-09-12T14:49:29.618Z,190
2022-09-12T14:51:36.034Z,174
2022-09-12T14:52:39.577Z,168
2022-09-12T14:53:43.408Z,163
2022-09-12T14:54:47.068Z,163
2022-09-12T14:56:52.878Z,146
2022-09-12T14:57:55.948Z,133
2022-09-12T15:00:02.281Z,131
2022-09-12T15:02:07.526Z,126
2022-09-12T15:03:10.589Z,124
2022-09-12T15:05:17.764Z,127
2022-09-12T15:07:23.977Z,120
2022-09-12T15:08:27.845Z,115
2022-09-12T15:09:31.558Z,108
2022-09-12T15:10:34.649Z,102
2022-09-12T15:12:40.874Z,92
2022-09-12T15:14:47.431Z,94
2022-09-12T15:15:51.220Z,97
2022-09-12T15:17:58.096Z,94
2022-09-12T15:20:04.633Z,88
2022-09-12T15:21:07.535Z,83
2022-09-12T15:22:10.523Z,82
2022-09-12T15:23:13.969Z,81
2022-09-12T15:25:20.913Z,84
2022-09-12T15:27:27.167Z,86
2022-09-12T15:28:30.247Z,89
2022-09-12T15:30:36.774Z,94
2022-09-12T15:32:43.470Z,102
2022-09-12T15:33:47.481Z,104
2022-09-12T15:35:54.152Z,109
2022-09-12T15:38:00.895Z,111
2022-09-12T15:40:08.860Z,108
2022-09-12T15:41:12.128Z,106
2022-09-12T15:43:18.474Z,99
2022-09-12T15:45:25.001Z,94
2022-09-12T15:47:31.201Z,92
2022-09-12T15:48:33.988Z,92
2022-09-12T15:50:40.303Z,91
2022-09-12T15:52:46.877Z,86
2022-09-12T15:54:53.512Z,80
2022-09-12T15:55:57.103Z,75
2022-09-12T15:58:09.234Z,69
2022-09-12T16:00:14.695Z,67
2022-09-12T16:01:18.166Z,66
2022-09-12T16:02:22.317Z,64
2022-09-12T16:03:26.337Z,61
2022-09-12T16:04:29.486Z,58
2022-09-12T16:06:39.739Z,56
2022-09-12T16:08:46.509Z,55
2022-09-12T16:10:51.445Z,55
2022-09-12T16:11:55.114Z,54
2022-09-12T16:12:58.899Z,54
2022-09-12T16:14:02.087Z,54
2022-09-12T16:16:08.308Z,54
2022-09-12T16:17:11.408Z,54
2022-09-12T16:18:15.112Z,55
2022-09-12T16:19:18.767Z,55
2022-09-12T16:21:25.005Z,54
2022-09-12T16:23:31.379Z,53
2022-09-12T16:24:34.982Z,52
2022-09-12T16:26:41.360Z,50
2022-09-12T16:28:49.658Z,48
2022-09-12T16:30:57.578Z,46
2022-09-12T16:32:00.381Z,45
2022-09-12T16:34:07.331Z,43
2022-09-12T16:36:12.791Z,42
2022-09-12T16:38:19.315Z,40
2022-09-12T16:39:21.633Z,39
2022-09-12T16:41:27.861Z,36
2022-09-12T16:43:35.339Z,34
2022-09-12T16:45:42.068Z,32
2022-09-12T16:46:45.476Z,31
2022-09-12T16:47:48.676Z,30
2022-09-12T16:48:55.753Z,29
2022-09-12T16:51:02.025Z,28
2022-09-12T16:52:04.930Z,27
2022-09-12T16:53:07.998Z,27
2022-09-12T16:54:11.084Z,26
2022-09-12T16:56:18.657Z,24
2022-09-12T16:58:23.778Z,22
2022-09-12T17:00:30.794Z,20
2022-09-12T17:01:34.181Z,19
2022-09-12T17:03:41.480Z,17
2022-09-12T17:05:48.075Z,16
2022-09-12T17:07:53.975Z,14
2022-09-12T17:08:57.707Z,13
2022-09-12T17:11:04.071Z,12
2022-09-12T17:13:11.074Z,10
2022-09-12T17:15:18.459Z,9
2022-09-12T17:16:22.055Z,9
2022-09-12T17:18:28.696Z,8
2022-09-12T17:20:35.703Z,7
2022-09-12T17:21:38.232Z,7
2022-09-12T17:22:40.555Z,6
2022-09-12T17:23:43.815Z,6
2022-09-12T17:25:50.508Z,5
2022-09-12T17:27:56.368Z,4
2022-09-12T17:28:59.237Z,4
2022-09-12T17:31:05.259Z,4
2022-09-12T17:33:11.527Z,3
2022-09-12T17:34:14.045Z,3
2022-09-12T17:35:17.392Z,2
2022-09-12T17:36:20.760Z,2
2022-09-12T17:38:27.625Z,2
2022-09-12T17:41:01.602Z,1
2022-09-12T17:43:08.496Z,1
2022-09-12T17:44:11.207Z,1
2022-09-12T17:45:20.258Z,1
2022-09-12T17:46:24.436Z,0
2022-09-12T17:48:30.255Z,0
2022-09-12T17:50:41.649Z,0
2022-09-12T17:51:44.829Z,0
2022-09-12T17:52:48.281Z,0
2022-09-12T17:53:51.420Z,0
2022-09-12T17:55:57.084Z,0
2022-09-12T17:58:03.023Z,0
2022-09-12T17:59:06.140Z,0
2022-09-12T18:01:13.019Z,0
2022-09-12T18:03:20.586Z,0
2022-09-12T18:05:26.837Z,0
2022-09-12T18:06:29.941Z,0
2022-09-12T18:08:36.805Z,0
2022-09-12T18:10:44.076Z,0
2022-09-12T18:12:49.930Z,0
2022-09-12T18:13:52.814Z,0
2022-09-12T18:15:59.050Z,0
2022-09-12T18:18:06.264Z,0
2022-09-12T18:20:13.027Z,0
2022-09-12T18:21:16.015Z,0
2022-09-12T18:23:22.128Z,0
2022-09-12T18:25:28.434Z,0
2022-09-12T18:27:34.472Z,0
2022-09-12T18:28:37.071Z,0
2022-09-12T18:30:43.371Z,0
2022-09-12T18:32:48.614Z,0
2022-09-12T18:33:52.396Z,0
2022-09-12T18:34:55.777Z,0
2022-09-12T18:35:59.298Z,0
2022-09-12T18:38:04.991Z,0
2022-09-12T18:39:08.255Z,0
2022-09-12T18:40:11.233Z,0
2022-09-12T18:41:14.405Z,0
2022-09-12T18:43:21.265Z,0
2022-09-12T18:45:27.829Z,0
2022-09-12T18:46:31.476Z,0
2022-09-12T18:48:36.865Z,0
2022-09-12T18:50:44.308Z,0
2022-09-12T18:52:51.016Z,0
2022-09-12T18:53:54.018Z,0
2022-09-12T18:56:01.166Z,0
2022-09-12T18:58:07.309Z,0
2022-09-12T19:00:14.975Z,0
2022-09-12T19:01:19.003Z,0
2022-09-12T19:03:25.377Z,0
2022-09-12T19:05:31.906Z,0
2022-09-12T19:06:35.261Z,0
2022-09-12T19:07:38.362Z,0
2022-09-12T19:08:41.517Z,0
2022-09-12T19:10:47.377Z,0
2022-09-12T19:12:54.358Z,0
2022-09-12T19:13:57.437Z,0
2022-09-12T19:16:04.188Z,0
2022-09-12T19:18:10.463Z,0
2022-09-12T19:19:13.807Z,0
2022-09-12T19:20:17.266Z,0
2022-09-12T19:21:21.095Z,0
2022-09-12T19:23:28.422Z,0
2022-09-12T19:25:34.852Z,0
2022-09-12T19:26:38.285Z,0
2022-09-12T19:28:44.108Z,0
2022-09-12T19:30:50.896Z,0
2022-09-12T19:32:56.777Z,0
2022-09-12T19:34:00.353Z,0
2022-09-12T19:36:44.715Z,0
2022-09-12T19:37:50.276Z,0
2022-09-12T19:38:53.987Z,0
2022-09-12T19:41:00.222Z,0
2022-09-12T19:43:06.178Z,0
2022-09-12T19:44:08.700Z,0
2022-09-12T19:45:11.814Z,0
2022-09-12T19:46:14.491Z,0
2022-09-12T19:48:20.131Z,0
2022-09-12T19:49:23.022Z,0
2022-09-12T19:50:26.292Z,0
2022-09-12T19:51:29.002Z,0
2022-09-12T19:53:36.130Z,0
2022-09-12T19:54:38.681Z,0
2022-09-12T19:55:42.410Z,0
2022-09-12T19:56:45.400Z,0
2022-09-12T19:58:59.623Z,0
2022-09-12T20:01:06.226Z,0
2022-09-12T20:02:09.674Z,0
2022-09-12T20:04:16.424Z,0
2022-09-12T20:06:22.451Z,0
2022-09-12T20:08:29.068Z,0
2022-09-12T20:09:33.197Z,0
2022-09-12T20:11:39.744Z,0
2022-09-12T20:13:45.961Z,0
2022-09-12T20:15:52.640Z,0
2022-09-12T20:16:55.525Z,0
2022-09-12T20:19:01.570Z,0
2022-09-12T20:21:08.755Z,0
2022-09-12T20:23:13.515Z,0
2022-09-12T20:24:16.613Z,0
2022-09-12T20:26:22.967Z,0
2022-09-12T20:28:29.552Z,0
2022-09-12T20:30:35.128Z,0
2022-09-12T20:31:38.389Z,0
2022-09-12T20:33:43.961Z,0
2022-09-12T20:35:51.192Z,0
2022-09-12T20:37:58.387Z,0
2022-09-12T20:39:02.520Z,0
2022-09-12T20:41:10.124Z,0
2022-09-12T20:43:15.275Z,0
2022-09-12T20:45:20.859Z,0
2022-09-12T20:46:24.854Z,0
2022-09-12T20:48:30.769Z,0
2022-09-12T20:50:36.346Z,0
2022-09-12T20:52:42.898Z,0
2022-09-12T20:53:45.520Z,0
2022-09-12T20:55:51.965Z,0
2022-09-12T20:57:58.905Z,0
2022-09-12T21:00:04.507Z,0
2022-09-12T21:01:07.387Z,0
2022-09-12T21:03:14.667Z,0
2022-09-12T21:05:21.044Z,0
2022-09-12T21:07:27.353Z,0
2022-09-12T21:08:30.818Z,0
2022-09-12T21:10:36.695Z,0
2022-09-12T21:12:42.880Z,0
2022-09-12T21:14:48.882Z,0
2022-09-12T21:15:51.669Z,0
2022-09-12T21:17:58.054Z,0
2022-09-12T21:20:04.060Z,0
2022-09-12T21:21:08.591Z,0
2022-09-12T21:22:11.385Z,0
2022-09-12T21:23:13.531Z,0
2022-09-12T21:25:19.061Z,0
2022-09-12T21:26:22.406Z,0
2022-09-12T21:27:25.929Z,0
2022-09-12T21:28:29.776Z,0
2022-09-12T21:30:35.734Z,0
2022-09-12T21:31:38.928Z,0
2022-09-12T21:32:41.506Z,0
2022-09-12T21:33:44.682Z,0
2022-09-12T21:35:50.904Z,0
2022-09-12T21:37:57.456Z,0
2022-09-12T21:39:00.336Z,0
2022-09-12T21:41:07.442Z,0
2022-09-12T21:43:15.270Z,0
2022-09-12T21:45:22.781Z,0
2022-09-12T21:46:25.714Z,0
2022-09-12T21:48:31.030Z,0
2022-09-12T21:50:36.773Z,0
2022-09-12T21:52:43.272Z,0
2022-09-12T21:53:46.563Z,0
2022-09-12T21:55:53.194Z,0
2022-09-12T21:58:00.507Z,0
2022-09-12T22:00:07.033Z,0
2022-09-12T22:01:09.813Z,0
2022-09-12T22:03:15.911Z,0
2022-09-12T22:05:22.589Z,0
2022-09-12T22:07:29.161Z,0
2022-09-12T22:08:31.680Z,0
2022-09-12T22:10:37.266Z,0
2022-09-12T22:12:48.002Z,0
2022-09-12T22:14:54.496Z,0
2022-09-12T22:15:58.703Z,0
2022-09-12T22:18:05.322Z,0
2022-09-12T22:20:12.493Z,0
2022-09-12T22:22:19.790Z,0
2022-09-12T22:23:27.343Z,0
2022-09-12T22:25:34.591Z,0
2022-09-12T22:27:42.010Z,0
2022-09-12T22:29:48.572Z,0
2022-09-12T22:30:51.109Z,0
2022-09-12T22:31:54.468Z,0
2022-09-12T22:32:57.289Z,0
2022-09-12T22:35:03.339Z,0
2022-09-12T22:36:06.779Z,0
2022-09-12T22:37:10.098Z,0
2022-09-12T22:38:13.296Z,0
2022-09-12T22:40:19.841Z,0
2022-09-12T22:41:22.942Z,0
2022-09-12T22:42:25.890Z,0
2022-09-12T22:43:29.460Z,0
2022-09-12T22:45:35.969Z,0
2022-09-12T22:47:43.282Z,0
2022-09-12T22:48:46.667Z,0
2022-09-12T22:50:52.046Z,0
2022-09-12T22:52:58.039Z,0
2022-09-12T22:54:16.006Z,0
2022-09-12T22:55:19.071Z,0
2022-09-12T22:56:22.146Z,0
2022-09-12T22:57:25.132Z,0
2022-09-12T22:58:27.916Z,0
2022-09-12T23:00:35.022Z,0
2022-09-12T23:01:38.605Z,0
2022-09-12T23:02:41.794Z,0
2022-09-12T23:03:46.580Z,0
2022-09-12T23:05:52.687Z,0
2022-09-12T23:08:00.053Z,0
2022-09-12T23:09:03.254Z,0
2022-09-12T23:11:09.319Z,0
2022-09-12T23:13:15.331Z,0
2022-09-12T23:15:20.965Z,0